Kenosha, WI (53141)

8:19 PM CDT on August 30, 2015 (GMT -0500)
Elmwood Park | | Change Station
CLOSE
Current Station
Personal Weather Station
Location: Kenosha, WI
Elevation: 627 ft
Nearby Weather Stations

Elev 627 ft 42.56 °N, 87.85 °W | Updated 60 seconds ago

Clear
Clear
64.4 °F
Feels Like 64.4 °F
N
0.0
Wind Variable Wind from SSE

Today
High -- | Low -- °F
--% Chance of Precip.
Yesterday
High -- | Low -- °F
Precip. -- in
6:13 AM 7:29 PM
Full, 98% visible
Pressure 30.03 in
Visibility 7.0 miles
Clouds Clear
Dew Point 64 °F
Humidity 98%
Rainfall 0.00 in
Snow Depth Not available.
UV 0 out of 12
Pollen 8.70 out of 12
Air Quality Not available.
Flu Activity Not available.
METAR KENW 310053Z 14005KT 7SM CLR 18/17 A3003 RMK AO2 SLP168 T01830167
Pressure 30.03 in
Visibility 7.0 miles
Clouds Clear
Dew Point 64 °F
Humidity 98%
Rainfall 0.00 in
Snow Depth Not available.
UV 0 out of 12
Pollen 8.70 out of 12
Air Quality Not available.
Flu Activity Not available.
METAR KENW 310053Z 14005KT 7SM CLR 18/17 A3003 RMK AO2 SLP168 T01830167

10-Day Weather Forecast

×

Almanac

Astronomy

Aug. 30, 2015 Rise Set
Actual Time
Civil Twilight
Nautical Twilight
Astronomical Twilight
Moon
Length of Visible Light
Length of Day
Tomorrow will be .
, % of the Moon is Illuminated

Today's Extremes

State Highs State Lows

Community

WunderPhotos

Upload Photos

1,851,131 photos uploaded!

WunderBlogs® & News

Nearby

Air Quality

  Air Quality AQ Index Pollutant
Not available.

Snow Depth

Station Depth Elevation

Earthquake Activity

City Distance Mag. Time & Date
Minimum magnitude displayed is 2.5.

Coastal Water Temperatures

Place Temperature

Stations

Nearby Weather Stations

Station Location Temp. Windchill Dew Point Humidity Wind Precip. Elev Updated Type